createdAt,value
2022-08-09T00:02:32.696Z,17.27
2022-08-09T00:06:19.300Z,17.07
2022-08-09T00:08:57.488Z,17.05
2022-08-09T00:15:59.362Z,16.96
2022-08-09T00:19:27.715Z,17.12
2022-08-09T00:22:15.432Z,17.09
2022-08-09T00:24:54.237Z,17.01
2022-08-09T00:27:51.300Z,17.02
2022-08-09T00:30:39.863Z,17.11
2022-08-09T00:33:51.049Z,17.13
2022-08-09T00:36:48.989Z,17.36
2022-08-09T00:40:09.338Z,17.32
2022-08-09T00:44:16.910Z,17.09
2022-08-09T00:46:55.239Z,17.03
2022-08-09T00:50:37.631Z,17.22
2022-08-09T00:53:24.014Z,17.06
2022-08-09T00:56:37.659Z,17.08
2022-08-09T00:59:46.702Z,17.32
2022-08-09T01:02:27.255Z,17.32
2022-08-09T01:05:14.626Z,17.24
2022-08-09T01:09:02.937Z,16.94
2022-08-09T01:13:42.052Z,16.93
2022-08-09T01:20:06.847Z,17.01
2022-08-09T01:24:10.896Z,17.04
2022-08-09T01:32:32.280Z,16.63
2022-08-09T01:34:02.389Z,16.76
2022-08-09T01:36:41.131Z,16.63
2022-08-09T01:40:07.462Z,16.70
2022-08-09T01:45:58.015Z,16.65
2022-08-09T01:48:49.387Z,16.43
2022-08-09T01:51:57.101Z,16.51
2022-08-09T01:55:13.672Z,16.71
2022-08-09T02:02:38.642Z,16.61
2022-08-09T02:06:33.644Z,16.56
2022-08-09T02:25:42.743Z,16.79
2022-08-09T02:32:32.049Z,16.87
2022-08-09T02:44:30.165Z,16.83
2022-08-09T02:53:30.236Z,16.81
2022-08-09T03:02:21.970Z,16.88
2022-08-09T03:05:08.562Z,16.97
2022-08-09T03:09:01.780Z,17.15
2022-08-09T03:12:10.961Z,17.05
2022-08-09T03:16:06.190Z,17.13
2022-08-09T03:19:02.490Z,17.32
2022-08-09T03:22:30.478Z,17.39
2022-08-09T03:34:25.656Z,17.25
2022-08-09T03:37:58.800Z,17.26
2022-08-09T03:40:46.116Z,17.36
2022-08-09T04:57:24.081Z,18.35
2022-08-09T05:00:09.152Z,18.21
2022-08-09T05:03:41.248Z,18.23
2022-08-09T05:06:04.340Z,18.21
2022-08-09T05:09:08.410Z,18.47
2022-08-09T05:11:54.685Z,18.39
2022-08-09T05:14:38.429Z,18.29
2022-08-09T05:18:39.766Z,18.59
2022-08-09T05:20:30.631Z,18.46
2022-08-09T05:23:54.757Z,18.76
2022-08-09T05:26:33.922Z,18.73
2022-08-09T05:29:24.172Z,18.88
2022-08-09T05:31:57.462Z,18.93
2022-08-09T05:34:32.996Z,19.04
2022-08-09T05:50:11.009Z,19.58
2022-08-09T05:52:26.604Z,19.74
2022-08-09T05:55:20.707Z,19.86
2022-08-09T05:57:56.613Z,20.14
2022-08-09T06:00:58.695Z,20.16
2022-08-09T06:03:54.664Z,20.25
2022-08-09T06:06:33.594Z,20.39
2022-08-09T06:09:40.590Z,20.63
2022-08-09T06:12:10.466Z,21.32
2022-08-09T06:14:54.711Z,21.33
2022-08-09T06:17:43.661Z,21.33
2022-08-09T06:20:23.211Z,21.20
2022-08-09T06:23:00.235Z,20.87
2022-08-09T06:29:05.439Z,20.48
2022-08-09T06:32:09.249Z,20.15
2022-08-09T06:34:54.330Z,20.23
2022-08-09T06:37:29.046Z,20.24
2022-08-09T06:40:03.529Z,20.18
2022-08-09T06:42:51.727Z,20.19
2022-08-09T06:46:06.240Z,20.16
2022-08-09T06:48:30.430Z,20.35
2022-08-09T06:51:10.958Z,20.31
2022-08-09T06:53:45.631Z,20.47
2022-08-09T06:56:21.236Z,20.69
2022-08-09T07:00:49.822Z,21.41
2022-08-09T07:02:22.060Z,21.75
2022-08-09T07:05:04.621Z,21.66
2022-08-09T07:07:59.833Z,21.33
2022-08-09T07:10:52.345Z,21.20
2022-08-09T07:13:45.399Z,20.87
2022-08-09T07:17:21.460Z,20.56
2022-08-09T07:20:06.427Z,20.37
2022-08-09T07:22:46.462Z,20.24
2022-08-09T07:25:31.461Z,20.14
2022-08-09T07:28:19.191Z,20.19
2022-08-09T07:31:08.203Z,20.21
2022-08-09T07:33:52.977Z,20.32
2022-08-09T07:36:32.615Z,20.42
2022-08-09T07:40:16.828Z,20.73
2022-08-09T07:42:56.405Z,20.54
2022-08-09T07:45:42.402Z,20.66
2022-08-09T07:48:15.552Z,20.85
2022-08-09T07:52:03.750Z,20.68
2022-08-09T07:54:07.350Z,20.75
2022-08-09T07:56:49.273Z,20.80
2022-08-09T08:00:02.916Z,20.93
2022-08-09T08:02:47.930Z,20.96
2022-08-09T08:05:18.991Z,21.10
2022-08-09T08:08:42.722Z,21.60
2022-08-09T08:11:15.354Z,21.87
2022-08-09T08:13:56.236Z,22.07
2022-08-09T08:16:31.375Z,22.24
2022-08-09T08:19:21.659Z,22.30
2022-08-09T08:22:28.548Z,22.58
2022-08-09T08:24:59.176Z,22.44
2022-08-09T08:27:40.819Z,22.30
2022-08-09T08:30:18.854Z,22.40
2022-08-09T08:32:57.651Z,22.40
2022-08-09T08:35:52.993Z,22.77
2022-08-09T08:38:43.045Z,22.77
2022-08-09T08:41:42.208Z,22.89
2022-08-09T08:44:28.780Z,22.97
2022-08-09T08:47:13.087Z,22.75
2022-08-09T08:49:52.301Z,22.86
2022-08-09T08:52:59.104Z,22.98
2022-08-09T08:55:29.033Z,22.79
2022-08-09T08:58:27.187Z,22.75
2022-08-09T09:01:09.077Z,22.75
2022-08-09T09:03:50.558Z,22.72
2022-08-09T09:06:25.178Z,22.78
2022-08-09T09:09:01.292Z,22.91
2022-08-09T09:11:51.862Z,23.05
2022-08-09T09:14:42.420Z,22.84
2022-08-09T09:17:21.956Z,22.96
2022-08-09T09:20:21.727Z,22.71
2022-08-09T09:23:37.701Z,22.65
2022-08-09T09:26:12.521Z,23.08
2022-08-09T09:29:58.150Z,23.29
2022-08-09T09:32:34.942Z,23.29
2022-08-09T09:35:10.911Z,23.41
2022-08-09T09:37:57.932Z,23.47
2022-08-09T09:40:55.786Z,23.67
2022-08-09T09:43:26.403Z,24.07
2022-08-09T09:49:49.922Z,24.03
2022-08-09T09:52:37.765Z,24.07
2022-08-09T09:55:31.218Z,23.94
2022-08-09T09:58:37.300Z,23.40
2022-08-09T10:01:57.660Z,23.34
2022-08-09T10:04:37.457Z,23.32
2022-08-09T10:08:10.704Z,23.67
2022-08-09T10:10:40.386Z,24.09
2022-08-09T10:13:12.679Z,24.00
2022-08-09T10:16:55.187Z,24.13
2022-08-09T10:19:05.356Z,24.14
2022-08-09T10:26:06.585Z,23.89
2022-08-09T10:29:37.158Z,24.08
2022-08-09T10:32:40.383Z,25.88
2022-08-09T10:35:51.748Z,26.42
2022-08-09T10:38:56.280Z,26.11
2022-08-09T10:42:03.850Z,25.69
2022-08-09T10:45:04.502Z,25.69
2022-08-09T10:48:47.210Z,25.06
2022-08-09T10:52:33.412Z,24.64
2022-08-09T10:54:36.160Z,24.33
2022-08-09T10:57:20.426Z,24.22
2022-08-09T11:03:14.276Z,24.14
2022-08-09T11:04:29.852Z,24.11
2022-08-09T11:07:57.763Z,23.77
2022-08-09T11:10:47.287Z,23.68
2022-08-09T11:13:50.002Z,23.61
2022-08-09T11:16:49.116Z,23.98
2022-08-09T11:20:23.105Z,24.52
2022-08-09T11:23:10.108Z,24.57
2022-08-09T11:26:18.192Z,24.46
2022-08-09T11:29:02.968Z,24.34
2022-08-09T11:32:03.585Z,24.02
2022-08-09T11:35:05.053Z,23.99
2022-08-09T11:38:41.647Z,23.81
2022-08-09T11:41:21.641Z,23.94
2022-08-09T11:43:57.030Z,23.83
2022-08-09T11:47:01.133Z,24.37
2022-08-09T11:53:02.582Z,24.96
2022-08-09T11:53:57.603Z,25.37
2022-08-09T11:57:02.395Z,25.89
2022-08-09T11:59:20.964Z,25.64
2022-08-09T12:02:37.517Z,25.49
2022-08-09T12:05:34.454Z,25.36
2022-08-09T12:08:34.257Z,25.41
2022-08-09T12:11:18.392Z,25.10
2022-08-09T12:14:41.007Z,25.11
2022-08-09T12:17:46.757Z,25.76
2022-08-09T12:20:35.829Z,26.65
2022-08-09T12:23:58.004Z,27.06
2022-08-09T12:28:59.287Z,26.44
2022-08-09T12:30:36.370Z,25.55
2022-08-09T12:33:59.128Z,24.98
2022-08-09T12:36:27.674Z,24.56
2022-08-09T12:39:25.014Z,24.29
2022-08-09T12:42:19.674Z,24.16
2022-08-09T12:45:01.931Z,24.15
2022-08-09T12:48:06.079Z,24.80
2022-08-09T12:50:41.573Z,25.93
2022-08-09T12:53:44.798Z,25.97
2022-08-09T12:56:48.462Z,26.10
2022-08-09T12:59:39.769Z,27.00
2022-08-09T13:02:57.959Z,28.26
2022-08-09T13:06:16.082Z,29.15
2022-08-09T13:09:06.148Z,29.78
2022-08-09T13:12:32.387Z,30.24
2022-08-09T13:14:45.481Z,30.42
2022-08-09T13:18:03.620Z,30.04
2022-08-09T13:21:03.826Z,28.92
2022-08-09T13:24:07.164Z,27.48
2022-08-09T13:26:52.020Z,26.50
2022-08-09T13:29:42.246Z,25.65
2022-08-09T13:32:29.065Z,24.76
2022-08-09T13:35:02.585Z,24.22
2022-08-09T13:37:51.038Z,23.86
2022-08-09T13:41:54.739Z,23.51
2022-08-09T13:43:35.855Z,23.48
2022-08-09T13:47:16.571Z,23.63
2022-08-09T13:49:06.330Z,23.80
2022-08-09T13:52:09.503Z,24.03
2022-08-09T13:55:13.710Z,23.63
2022-08-09T13:57:59.322Z,23.36
2022-08-09T14:00:43.783Z,23.18
2022-08-09T14:04:02.812Z,23.22
2022-08-09T14:06:26.692Z,23.08
2022-08-09T14:09:06.848Z,22.99
2022-08-09T14:11:47.335Z,22.63
2022-08-09T14:14:25.818Z,22.61
2022-08-09T14:16:58.993Z,22.61
2022-08-09T14:19:36.402Z,22.42
2022-08-09T14:22:07.791Z,22.19
2022-08-09T14:24:36.879Z,22.28
2022-08-09T14:27:24.300Z,22.39
2022-08-09T14:30:37.266Z,22.06
2022-08-09T14:33:11.520Z,22.01
2022-08-09T14:35:52.735Z,22.11
2022-08-09T14:39:13.596Z,22.26
2022-08-09T14:41:45.210Z,22.32
2022-08-09T14:44:16.353Z,22.20
2022-08-09T14:47:12.647Z,22.08
2022-08-09T14:50:09.486Z,22.16
2022-08-09T14:52:47.861Z,21.87
2022-08-09T14:55:22.303Z,21.89
2022-08-09T14:57:50.400Z,22.06
2022-08-09T15:00:27.095Z,22.13
2022-08-09T15:03:03.790Z,21.93
2022-08-09T15:05:50.165Z,21.83
2022-08-09T15:08:23.866Z,21.87
2022-08-09T15:11:00.936Z,21.95
2022-08-09T15:13:56.433Z,21.92
2022-08-09T15:16:22.777Z,22.01
2022-08-09T15:18:52.404Z,22.01
2022-08-09T15:21:54.798Z,21.89
2022-08-09T15:24:27.039Z,21.98
2022-08-09T15:27:01.662Z,21.87
2022-08-09T15:30:57.713Z,21.68
2022-08-09T15:32:38.430Z,21.63
2022-08-09T15:35:44.525Z,21.66
2022-08-09T15:38:16.905Z,21.69
2022-08-09T15:40:51.312Z,21.73
2022-08-09T15:43:24.804Z,21.76
2022-08-09T15:46:32.313Z,21.86
2022-08-09T15:49:22.113Z,21.85
2022-08-09T15:52:04.969Z,21.88
2022-08-09T15:54:48.929Z,21.86
2022-08-09T15:57:35.487Z,21.82
2022-08-09T16:00:26.200Z,21.73
2022-08-09T16:03:02.282Z,21.51
2022-08-09T16:05:53.025Z,21.45
2022-08-09T16:08:36.190Z,21.31
2022-08-09T16:11:29.292Z,21.23
2022-08-09T16:14:06.385Z,21.09
2022-08-09T16:16:45.763Z,21.27
2022-08-09T16:19:18.032Z,21.21
2022-08-09T16:21:56.654Z,21.10
2022-08-09T16:26:02.523Z,21.03
2022-08-09T17:06:28.896Z,20.80
2022-08-09T17:11:42.375Z,20.60
2022-08-09T17:14:25.661Z,20.49
2022-08-09T17:17:25.856Z,20.53
2022-08-09T17:26:01.668Z,20.17
2022-08-09T17:34:04.263Z,20.06
2022-08-09T17:38:12.991Z,19.85
2022-08-09T17:41:02.943Z,19.72
2022-08-09T17:44:39.096Z,19.93
2022-08-09T17:47:31.155Z,19.89
2022-08-09T17:50:37.199Z,19.96
2022-08-09T17:53:53.071Z,19.93
2022-08-09T17:56:51.086Z,19.66
2022-08-09T18:04:22.341Z,19.59
2022-08-09T18:06:58.483Z,19.48
2022-08-09T18:15:50.654Z,19.41
2022-08-09T18:18:43.067Z,19.62
2022-08-09T18:21:23.433Z,19.40
2022-08-09T18:24:11.588Z,19.62
2022-08-09T18:26:46.595Z,19.65
2022-08-09T18:30:40.620Z,19.88
2022-08-09T18:32:07.621Z,19.59
2022-08-09T18:34:40.678Z,19.45
2022-08-09T18:37:10.138Z,19.42
2022-08-09T18:40:00.644Z,19.53
2022-08-09T18:42:31.303Z,19.31
2022-08-09T18:45:00.756Z,19.39
2022-08-09T18:47:37.080Z,19.43
2022-08-09T18:50:14.490Z,19.42
2022-08-09T18:52:46.927Z,19.31
2022-08-09T18:55:19.481Z,19.16
2022-08-09T18:58:09.367Z,19.40
2022-08-09T19:00:39.548Z,19.40
2022-08-09T19:03:10.130Z,19.22
2022-08-09T19:06:01.929Z,19.32
2022-08-09T19:08:30.362Z,19.16
2022-08-09T19:11:10.553Z,19.35
2022-08-09T19:13:51.142Z,19.15
2022-08-09T19:16:38.034Z,19.13
2022-08-09T19:19:23.750Z,19.06
2022-08-09T19:22:23.147Z,19.17
2022-08-09T19:28:28.823Z,19.14
2022-08-09T19:31:01.423Z,19.18
2022-08-09T19:33:40.066Z,19.22
2022-08-09T19:46:34.086Z,19.06
